Time;durP1;ratioP1;P1;durP2;ratioP2;P2;SDS_P1;SDS_P2;PMS_P1;PMS_P2;Temp;Humidity;BMP_temperature;BMP_pressure;BME280_temperature;BME280_humidity;BME280_pressure;Samples;Min_cycle;Max_cycle;Signal;HPM_P1;HPM_P2
2022/06/02 04:00:24;;;;;;;2.13;1.93;;;13.80;96.30;;;;;;6017578;23;20834;-79
2022/06/02 04:02:55;;;;;;;2.40;1.90;;;13.80;96.30;;;;;;4953286;29;20414;-76
2022/06/02 04:05:57;;;;;;;2.17;1.97;;;14.30;96.30;;;;;;4954129;28;20423;-77
2022/06/02 04:09:01;;;;;;;2.23;2.10;;;14.90;96.30;;;;;;4953465;28;20553;-76
2022/06/02 04:11:27;;;;;;;1.63;1.47;;;14.90;96.30;;;;;;4943064;29;20454;-76
2022/06/02 04:14:20;;;;;;;2.83;2.10;;;15.40;96.30;;;;;;4955386;29;20469;-79
2022/06/02 04:17:10;;;;;;;2.47;1.80;;;15.50;96.30;;;;;;4962688;29;20226;-81
2022/06/02 04:23:06;;;;;;;3.47;1.90;;;15.30;96.30;;;;;;4960286;29;20405;-79
2022/06/02 04:25:55;;;;;;;1.90;1.67;;;15.70;96.30;;;;;;4941637;29;20472;-79
2022/06/02 04:28:42;;;;;;;2.90;1.90;;;15.90;96.30;;;;;;4954644;29;20486;-77
2022/06/02 04:31:36;;;;;;;1.53;1.43;;;16.40;96.30;;;;;;4955694;29;20434;-77
2022/06/02 04:34:16;;;;;;;1.87;1.67;;;16.70;96.30;;;;;;4955321;29;20419;-78
2022/06/02 04:37:04;;;;;;;2.20;1.87;;;16.80;96.30;;;;;;4957595;28;21125;-80
2022/06/02 04:39:54;;;;;;;1.87;1.77;;;16.70;96.30;;;;;;4960450;29;20481;-79
2022/06/02 04:42:57;;;;;;;2.47;2.17;;;17.20;94.80;;;;;;4962610;28;20441;-78
2022/06/02 04:45:39;;;;;;;1.60;1.50;;;17.80;95.00;;;;;;4953721;28;20422;-77
2022/06/02 04:48:26;;;;;;;2.30;1.60;;;18.50;90.60;;;;;;4964107;28;20462;-77
2022/06/02 04:51:28;;;;;;;1.80;1.50;;;18.60;91.10;;;;;;4969991;28;20438;-77
2022/06/02 04:54:05;;;;;;;3.67;1.80;;;19.20;89.60;;;;;;4973119;28;20421;-78
2022/06/02 04:56:43;;;;;;;2.40;2.07;;;19.70;85.20;;;;;;4960075;28;20425;-79
2022/06/02 04:59:23;;;;;;;2.00;1.73;;;19.60;85.50;;;;;;4976706;28;20492;-78
2022/06/02 05:02:14;;;;;;;2.70;2.00;;;19.70;86.60;;;;;;4958822;28;20831;-78
2022/06/02 05:05:10;;;;;;;2.03;1.77;;;19.80;86.10;;;;;;4955140;28;20509;-80
2022/06/02 05:08:17;;;;;;;3.40;1.60;;;20.10;84.80;;;;;;4935191;29;20466;-80
2022/06/02 05:11:20;;;;;;;2.13;1.40;;;19.90;86.10;;;;;;4971488;28;20468;-80
2022/06/02 05:14:23;;;;;;;1.60;1.50;;;20.40;86.20;;;;;;4925765;28;20453;-77
2022/06/02 05:17:04;;;;;;;1.90;1.47;;;20.70;85.80;;;;;;4944856;29;20446;-78
2022/06/02 05:19:34;;;;;;;1.77;1.40;;;21.50;83.30;;;;;;4956378;29;20425;-77
2022/06/02 05:22:24;;;;;;;1.67;1.57;;;21.40;81.60;;;;;;4956854;29;20422;-77
2022/06/02 05:24:55;;;;;;;1.97;1.87;;;21.90;80.70;;;;;;4959343;28;20405;-77
2022/06/02 05:27:41;;;;;;;1.53;1.43;;;21.30;81.20;;;;;;4975800;28;20960;-79
2022/06/02 05:30:43;;;;;;;3.03;2.00;;;21.80;84.60;;;;;;4975884;28;20417;-78
2022/06/02 05:33:18;;;;;;;4.60;2.53;;;21.60;82.90;;;;;;4940908;29;20504;-79
2022/06/02 05:36:06;;;;;;;2.30;2.10;;;21.60;80.60;;;;;;4959710;29;20432;-80
2022/06/02 05:38:48;;;;;;;2.43;1.80;;;20.20;84.60;;;;;;4960350;29;20418;-79
2022/06/02 05:41:48;;;;;;;2.50;2.30;;;20.30;86.70;;;;;;4960110;29;20433;-80
2022/06/02 05:44:47;;;;;;;2.40;2.20;;;21.20;82.50;;;;;;4961412;28;20427;-80
2022/06/02 05:47:40;;;;;;;2.10;2.00;;;22.20;81.00;;;;;;4960917;28;20457;-79
2022/06/02 05:50:06;;;;;;;4.23;2.60;;;22.50;80.20;;;;;;4957305;29;20411;-78
2022/06/02 05:52:59;;;;;;;3.33;2.50;;;23.30;77.10;;;;;;4962054;28;20488;-79
2022/06/02 05:56:03;;;;;;;3.90;2.60;;;22.10;79.80;;;;;;4951866;28;20417;-79
2022/06/02 05:59:30;;;;;;;2.67;2.47;;;20.80;83.20;;;;;;4940746;28;20432;-79
2022/06/02 06:02:13;;;;;;;2.70;2.50;;;20.00;85.00;;;;;;4898355;29;20467;-79
2022/06/02 06:05:16;;;;;;;4.90;2.67;;;20.70;85.20;;;;;;4881363;29;20437;-78
2022/06/02 06:07:55;;;;;;;2.70;2.50;;;20.90;84.50;;;;;;4962435;28;20461;-78
2022/06/02 06:10:29;;;;;;;2.50;2.30;;;21.80;85.20;;;;;;4975167;28;20418;-78
2022/06/02 06:13:06;;;;;;;2.60;2.40;;;21.90;85.30;;;;;;4957751;28;20422;-78
2022/06/02 06:16:07;;;;;;;3.50;2.70;;;22.60;79.00;;;;;;4975229;28;20417;-75
2022/06/02 06:18:58;;;;;;;3.23;2.90;;;22.30;81.10;;;;;;4974928;28;20413;-77
2022/06/02 06:22:06;;;;;;;3.20;2.90;;;20.90;82.60;;;;;;4974936;28;20495;-77
2022/06/02 06:24:57;;;;;;;3.20;2.60;;;17.90;91.40;;;;;;4974946;28;20406;-76
2022/06/02 06:27:42;;;;;;;3.83;3.50;;;16.80;96.20;;;;;;4974766;28;20449;-77
2022/06/02 06:30:13;;;;;;;3.43;2.80;;;16.40;96.30;;;;;;4974858;28;20504;-77
2022/06/02 06:32:49;;;;;;;3.37;3.00;;;16.10;96.30;;;;;;4974656;28;20410;-77
2022/06/02 06:35:33;;;;;;;3.60;3.00;;;16.40;96.30;;;;;;4974765;28;20420;-79
2022/06/02 06:38:24;;;;;;;3.27;2.97;;;17.20;96.30;;;;;;4974561;28;20406;-78
2022/06/02 06:41:06;;;;;;;4.37;3.17;;;16.80;96.30;;;;;;4974662;28;20421;-78
2022/06/02 06:43:56;;;;;;;3.43;3.13;;;16.10;96.30;;;;;;4965063;28;20411;-78
2022/06/02 06:46:49;;;;;;;8.60;3.30;;;15.90;96.30;;;;;;4955131;29;20415;-78
2022/06/02 06:49:33;;;;;;;4.50;4.10;;;15.30;96.30;;;;;;4954965;29;20426;-78
2022/06/02 06:52:01;;;;;;;3.80;3.50;;;16.10;96.30;;;;;;4955111;29;20425;-78
2022/06/02 06:54:54;;;;;;;3.30;3.03;;;17.90;95.20;;;;;;4955056;29;20970;-78
2022/06/02 06:57:30;;;;;;;4.77;3.77;;;17.50;96.30;;;;;;4937989;29;20810;-79
2022/06/02 07:00:10;;;;;;;3.60;3.00;;;16.80;96.30;;;;;;4954479;28;20395;-79
2022/06/02 07:03:07;;;;;;;4.40;3.50;;;16.60;96.30;;;;;;4954847;29;20512;-78
2022/06/02 07:05:38;;;;;;;4.63;3.37;;;16.70;96.30;;;;;;4954838;29;20879;-78
2022/06/02 07:08:18;;;;;;;11.83;3.00;;;18.60;93.50;;;;;;4954667;29;20450;-78
2022/06/02 07:11:03;;;;;;;3.67;3.10;;;20.30;89.10;;;;;;4937543;29;20454;-78
2022/06/02 07:13:37;;;;;;;3.60;3.30;;;21.20;87.50;;;;;;4937442;29;20453;-82
2022/06/02 07:16:38;;;;;;;3.13;2.57;;;21.90;83.50;;;;;;4937503;29;20411;-82
2022/06/02 07:19:11;;;;;;;3.53;2.90;;;20.70;85.50;;;;;;4913813;29;20430;-77
2022/06/02 07:22:35;;;;;;;5.83;2.87;;;20.70;84.30;;;;;;4954624;29;20427;-79
2022/06/02 07:25:21;;;;;;;6.27;2.73;;;19.50;88.70;;;;;;4861097;29;20422;-81
2022/06/02 07:27:57;;;;;;;3.80;2.50;;;18.70;88.90;;;;;;4876344;29;20464;-79
2022/06/02 07:31:00;;;;;;;4.97;2.70;;;18.00;91.00;;;;;;4922548;29;20431;-78
2022/06/02 07:33:32;;;;;;;4.53;3.00;;;18.30;94.00;;;;;;4954389;29;20406;-78
2022/06/02 07:36:35;;;;;;;4.80;2.47;;;20.30;92.90;;;;;;4954442;29;20422;-78
2022/06/02 07:39:27;;;;;;;2.40;2.20;;;20.20;87.00;;;;;;4954135;29;20418;-78
2022/06/02 07:42:21;;;;;;;3.13;2.70;;;18.70;84.70;;;;;;4954292;29;20434;-79
2022/06/02 07:45:18;;;;;;;4.10;2.70;;;18.10;91.70;;;;;;4954330;29;20409;-78
2022/06/02 07:47:59;;;;;;;3.00;2.50;;;19.20;85.00;;;;;;4953959;29;20486;-80
2022/06/02 07:50:32;;;;;;;4.80;2.57;;;19.80;84.10;;;;;;4954149;29;20425;-79
2022/06/02 07:53:17;;;;;;;4.73;2.37;;;20.80;88.80;;;;;;4954173;29;20760;-79
2022/06/02 07:55:50;;;;;;;3.23;2.37;;;21.80;78.50;;;;;;4954192;29;20398;-79
2022/06/02 07:58:23;;;;;;;5.30;2.30;;;21.90;83.30;;;;;;4953944;29;20430;-78
2022/06/02 08:01:24;;;;;;;3.90;2.67;;;22.40;83.30;;;;;;4936966;29;20806;-79
2022/06/02 08:04:20;;;;;;;2.63;2.40;;;23.40;79.00;;;;;;4954134;29;20406;-81
2022/06/02 08:07:15;;;;;;;4.80;2.53;;;24.00;76.60;;;;;;4954007;29;20413;-76
2022/06/02 08:10:10;;;;;;;5.00;2.73;;;24.30;74.70;;;;;;4936650;29;20521;-79
2022/06/02 08:13:09;;;;;;;3.20;2.90;;;23.20;75.40;;;;;;4957132;29;20434;-78
2022/06/02 08:15:44;;;;;;;2.57;2.37;;;22.80;79.90;;;;;;4957978;29;20414;-79
2022/06/02 08:18:36;;;;;;;2.67;2.47;;;21.80;78.00;;;;;;4957712;29;20398;-78
2022/06/02 08:21:17;;;;;;;2.90;2.50;;;20.00;82.20;;;;;;4957893;29;20958;-77
2022/06/02 08:24:19;;;;;;;2.23;2.00;;;20.70;84.80;;;;;;4957836;29;20398;-80
2022/06/02 08:26:59;;;;;;;2.67;2.47;;;21.70;82.30;;;;;;4957314;29;20437;-77
2022/06/02 08:29:39;;;;;;;3.23;2.27;;;21.70;82.30;;;;;;4939449;29;20485;-77
2022/06/02 08:32:20;;;;;;;4.07;2.60;;;22.70;80.40;;;;;;4957670;29;20450;-80
2022/06/02 08:35:14;;;;;;;3.07;2.73;;;23.30;76.40;;;;;;4957513;29;20403;-78
2022/06/02 08:38:03;;;;;;;9.63;2.90;;;21.00;80.80;;;;;;4957712;29;20407;-78
2022/06/02 08:41:28;;;;;;;10.03;2.30;;;20.80;84.00;;;;;;4940341;29;20907;-77
2022/06/02 08:43:59;;;;;;;2.70;2.50;;;21.90;82.10;;;;;;4957481;29;20419;-78
2022/06/02 08:47:11;;;;;;;2.40;2.20;;;22.40;81.40;;;;;;4957509;29;20398;-76
2022/06/02 08:50:25;;;;;;;3.73;2.03;;;23.40;78.70;;;;;;4957374;29;20446;-76
2022/06/02 08:53:29;;;;;;;2.30;2.10;;;24.20;78.10;;;;;;4898921;29;20781;-77
2022/06/02 08:56:51;;;;;;;5.40;2.40;;;24.80;70.80;;;;;;4957331;29;20401;-77
2022/06/02 08:59:52;;;;;;;2.40;2.20;;;22.90;76.50;;;;;;4845244;29;20930;-77
2022/06/02 09:02:50;;;;;;;3.77;2.60;;;23.00;80.80;;;;;;4860550;29;20454;-78
2022/06/02 09:05:30;;;;;;;5.17;2.03;;;23.70;73.60;;;;;;4957299;29;20413;-78
2022/06/02 09:08:01;;;;;;;3.33;1.90;;;23.80;76.50;;;;;;4956861;29;20450;-78
2022/06/02 09:10:45;;;;;;;1.90;1.70;;;23.80;76.60;;;;;;4939776;29;20464;-78
2022/06/02 09:13:50;;;;;;;2.17;1.90;;;23.50;77.60;;;;;;4957105;29;20402;-79
2022/06/02 09:16:24;;;;;;;2.80;2.60;;;23.50;77.00;;;;;;4957044;29;20434;-77
2022/06/02 09:19:02;;;;;;;3.50;2.40;;;23.70;79.10;;;;;;4956588;29;20478;-77
2022/06/02 09:22:02;;;;;;;2.77;2.57;;;23.10;75.40;;;;;;4956666;28;20460;-77
2022/06/02 09:24:56;;;;;;;1.87;1.77;;;23.70;82.90;;;;;;4939726;29;20439;-78
2022/06/02 09:27:52;;;;;;;2.60;2.10;;;24.30;76.40;;;;;;4956893;29;20446;-78
2022/06/02 09:30:23;;;;;;;2.87;2.00;;;24.20;76.60;;;;;;4981611;29;20486;-84
2022/06/02 09:36:22;;;;;;;2.57;2.07;;;23.70;72.50;;;;;;4965247;29;20789;-78
2022/06/02 09:39:27;;;;;;;4.23;1.77;;;23.90;76.80;;;;;;4956278;29;20415;-78
2022/06/02 09:42:18;;;;;;;2.40;2.20;;;23.80;70.80;;;;;;4945767;29;20460;-78
2022/06/02 09:45:11;;;;;;;2.33;2.13;;;24.10;79.20;;;;;;4956376;29;20771;-77
2022/06/02 09:48:16;;;;;;;2.10;1.90;;;23.50;73.50;;;;;;4955357;29;20461;-78
2022/06/02 09:51:23;;;;;;;3.70;2.30;;;23.90;78.60;;;;;;4938220;29;20427;-78
2022/06/02 09:54:10;;;;;;;2.37;2.00;;;23.60;79.60;;;;;;4956244;29;20394;-77
2022/06/02 10:00:18;;;;;;;2.60;1.73;;;23.30;77.60;;;;;;4956159;29;20382;-77
2022/06/02 10:03:03;;;;;;;2.20;2.00;;;23.70;76.50;;;;;;4938903;29;20429;-77
2022/06/02 10:06:03;;;;;;;2.23;2.03;;;23.80;74.00;;;;;;4956018;29;20748;-79
2022/06/02 10:09:06;;;;;;;2.07;1.53;;;23.70;74.10;;;;;;4955780;29;20454;-79
2022/06/02 10:11:50;;;;;;;3.30;2.10;;;22.20;78.90;;;;;;4955816;29;20426;-78
2022/06/02 10:14:46;;;;;;;2.13;1.93;;;22.30;81.40;;;;;;4956717;29;20455;-78
2022/06/02 10:17:52;;;;;;;4.17;2.60;;;22.80;78.70;;;;;;4956118;29;20415;-78
2022/06/02 10:20:29;;;;;;;3.57;2.00;;;22.00;77.20;;;;;;4955556;29;20395;-78
2022/06/02 10:23:00;;;;;;;2.13;1.70;;;22.60;83.90;;;;;;4955702;29;20446;-80
2022/06/02 10:25:48;;;;;;;2.90;2.23;;;22.50;79.00;;;;;;4955572;29;20429;-78
2022/06/02 10:28:32;;;;;;;3.20;2.30;;;23.10;79.00;;;;;;4955300;29;20533;-77
2022/06/02 10:31:18;;;;;;;2.93;1.90;;;22.20;77.10;;;;;;4955500;29;20426;-77
2022/06/02 10:34:23;;;;;;;2.10;1.73;;;22.60;81.50;;;;;;4954564;28;20391;-76
2022/06/02 10:37:01;;;;;;;2.07;1.87;;;23.20;75.30;;;;;;4938137;29;20485;-77
2022/06/02 10:39:57;;;;;;;3.43;2.10;;;21.70;76.60;;;;;;4953904;29;20403;-78
2022/06/02 10:42:35;;;;;;;1.97;1.77;;;22.40;76.30;;;;;;4955111;29;20740;-76
2022/06/02 10:45:22;;;;;;;3.00;2.10;;;22.90;80.80;;;;;;4955350;29;20402;-77
2022/06/02 10:48:17;;;;;;;2.37;2.17;;;22.90;80.00;;;;;;4954886;29;20457;-79
2022/06/02 10:51:20;;;;;;;4.37;2.00;;;23.50;78.10;;;;;;4955067;29;20430;-77
2022/06/02 10:54:00;;;;;;;1.90;1.80;;;23.40;70.70;;;;;;4955092;29;20398;-79
2022/06/02 10:56:53;;;;;;;2.60;2.10;;;23.20;74.90;;;;;;4955052;29;20395;-79
2022/06/02 10:59:43;;;;;;;1.47;1.37;;;23.00;80.20;;;;;;4954826;29;20401;-76
2022/06/02 11:02:34;;;;;;;2.20;1.80;;;23.60;76.20;;;;;;4954880;29;21017;-77
2022/06/02 11:05:34;;;;;;;1.60;1.00;;;23.40;72.00;;;;;;4954922;29;20402;-77
2022/06/02 11:08:11;;;;;;;2.93;1.33;;;23.60;68.80;;;;;;4971279;28;20461;-78
2022/06/02 11:11:22;;;;;;;1.93;1.73;;;23.40;80.60;;;;;;4974084;28;20467;-76
2022/06/02 11:14:25;;;;;;;1.90;1.70;;;22.50;75.10;;;;;;4974185;28;20390;-77
2022/06/02 11:17:21;;;;;;;3.10;1.80;;;22.70;79.40;;;;;;4969724;28;20411;-78
2022/06/02 11:20:13;;;;;;;1.53;1.40;;;23.10;80.30;;;;;;4954532;29;20407;-77
2022/06/02 11:22:39;;;;;;;1.57;1.47;;;;;;;;;;4954605;29;20403;-78
2022/06/02 11:25:12;;;;;;;1.43;1.20;;;21.80;78.70;;;;;;4954587;29;20974;-79
2022/06/02 11:28:16;;;;;;;1.87;1.53;;;22.20;80.20;;;;;;4954305;29;20195;-77
2022/06/02 11:31:25;;;;;;;1.87;1.57;;;22.50;76.00;;;;;;4954101;29;20493;-78
2022/06/02 11:34:00;;;;;;;7.63;1.50;;;21.80;76.40;;;;;;4954479;29;20399;-77
2022/06/02 11:36:50;;;;;;;1.77;1.20;;;21.70;76.70;;;;;;4954316;29;20406;-78
2022/06/02 11:39:56;;;;;;;9.00;1.33;;;22.20;79.10;;;;;;4953680;29;20439;-79
2022/06/02 11:42:52;;;;;;;1.80;1.37;;;22.50;75.40;;;;;;4937115;29;20442;-79
2022/06/02 11:45:18;;;;;;;1.30;1.20;;;;;;;;;;4954272;28;20810;-78
2022/06/02 11:47:58;;;;;;;4.30;1.50;;;21.90;76.20;;;;;;4953827;29;20517;-80
2022/06/02 11:50:54;;;;;;;4.73;1.30;;;21.40;77.60;;;;;;4954302;29;20196;-78
2022/06/02 11:53:37;;;;;;;2.93;1.40;;;22.30;82.40;;;;;;4954578;29;20387;-80
2022/06/02 11:56:26;;;;;;;1.13;1.03;;;22.80;81.30;;;;;;4954898;29;20394;-78
2022/06/02 11:58:52;;;;;;;1.87;1.30;;;;;;;;;;4969199;29;20419;-84
2022/06/02 12:01:47;;;;;;;1.60;1.10;;;22.20;74.00;;;;;;4978928;28;20465;-85
2022/06/02 12:04:43;;;;;;;1.20;1.07;;;22.20;73.50;;;;;;4978866;28;20167;-80
2022/06/02 12:07:30;;;;;;;5.73;2.07;;;22.30;75.50;;;;;;4954933;29;20486;-77
2022/06/02 12:10:11;;;;;;;1.50;1.40;;;22.90;72.20;;;;;;4954375;29;20395;-77
2022/06/02 12:12:48;;;;;;;1.93;1.10;;;22.80;76.80;;;;;;4954203;29;20429;-79
2022/06/02 12:15:26;;;;;;;1.50;1.13;;;21.90;76.10;;;;;;4954380;29;20391;-76
2022/06/02 12:18:26;;;;;;;1.27;1.10;;;21.40;75.10;;;;;;4954090;29;20406;-76
2022/06/02 12:21:08;;;;;;;3.33;1.10;;;21.80;76.20;;;;;;4954292;29;20462;-76
2022/06/02 12:23:49;;;;;;;2.60;1.20;;;21.90;81.80;;;;;;4954104;29;20391;-76
2022/06/02 12:26:54;;;;;;;1.43;1.27;;;22.20;80.30;;;;;;4954319;29;20406;-76
2022/06/02 12:30:04;;;;;;;1.43;1.20;;;22.70;79.30;;;;;;4954016;29;20413;-76
2022/06/02 12:32:58;;;;;;;2.33;1.20;;;23.10;72.30;;;;;;4857273;29;20804;-77
2022/06/02 12:35:57;;;;;;;2.50;1.27;;;22.80;77.50;;;;;;4953860;29;20483;-76
2022/06/02 12:38:31;;;;;;;1.10;0.90;;;23.10;72.80;;;;;;4953645;29;20426;-76
2022/06/02 12:41:16;;;;;;;1.10;0.87;;;22.80;72.90;;;;;;4953727;29;20429;-77
2022/06/02 12:44:05;;;;;;;2.50;1.37;;;23.00;77.60;;;;;;4953837;29;20914;-76
2022/06/02 12:47:08;;;;;;;1.20;0.90;;;23.30;78.20;;;;;;4953704;29;20407;-76
2022/06/02 12:49:51;;;;;;;2.63;1.10;;;23.20;68.80;;;;;;4953575;29;21160;-76
2022/06/02 12:53:06;;;;;;;2.50;0.90;;;23.10;71.80;;;;;;4936568;29;20758;-76
2022/06/02 12:56:01;;;;;;;2.90;0.77;;;23.40;75.90;;;;;;4953584;29;20411;-79
2022/06/02 12:58:56;;;;;;;1.40;1.00;;;23.00;70.90;;;;;;4956293;28;20411;-77
2022/06/02 13:01:48;;;;;;;1.57;1.10;;;22.80;72.70;;;;;;4957122;29;20473;-77
2022/06/02 13:04:34;;;;;;;1.73;1.00;;;22.70;72.90;;;;;;4957463;29;20505;-76
2022/06/02 13:07:37;;;;;;;1.73;0.77;;;23.10;71.90;;;;;;4957119;29;20410;-76
2022/06/02 13:10:15;;;;;;;1.30;1.00;;;23.40;76.70;;;;;;4957229;29;20399;-79
2022/06/02 13:12:54;;;;;;;1.10;0.80;;;22.70;71.00;;;;;;4957098;29;20402;-78
2022/06/02 13:16:05;;;;;;;1.30;0.80;;;22.50;78.10;;;;;;4957062;29;20931;-76
2022/06/02 13:19:05;;;;;;;1.20;0.90;;;22.30;74.40;;;;;;4956754;29;20434;-79
2022/06/02 13:21:31;;;;;;;1.00;0.90;;;22.30;75.30;;;;;;4956791;29;20513;-78
2022/06/02 13:24:29;;;;;;;2.03;1.03;;;22.00;74.30;;;;;;4956708;29;20570;-76
2022/06/02 13:27:27;;;;;;;2.50;0.70;;;21.30;78.00;;;;;;4956665;29;20356;-79
2022/06/02 13:30:12;;;;;;;2.60;1.30;;;21.90;76.40;;;;;;4956710;29;20509;-79
2022/06/02 13:33:04;;;;;;;1.30;0.97;;;22.40;74.00;;;;;;4956468;29;20940;-76
2022/06/02 13:35:54;;;;;;;4.17;1.20;;;22.70;69.40;;;;;;4956552;29;20415;-76
2022/06/02 13:38:34;;;;;;;2.13;0.90;;;22.30;73.50;;;;;;4956378;29;20394;-76
2022/06/02 13:41:23;;;;;;;4.07;1.20;;;22.30;75.70;;;;;;4939114;29;20489;-80
2022/06/02 13:44:04;;;;;;;4.80;1.10;;;21.90;72.60;;;;;;4956435;29;20390;-76
2022/06/02 13:47:08;;;;;;;6.07;0.83;;;22.20;78.50;;;;;;4956490;29;21140;-76
2022/06/02 13:50:10;;;;;;;2.90;0.90;;;22.60;74.20;;;;;;4938921;29;20423;-76
2022/06/02 13:53:22;;;;;;;1.73;1.13;;;22.00;73.30;;;;;;4956144;29;20473;-77
2022/06/02 13:59:50;;;;;;;1.23;1.00;;;21.10;77.00;;;;;;4955914;29;20391;-76
2022/06/02 14:02:44;;;;;;;2.17;1.00;;;20.70;75.20;;;;;;4938590;29;20484;-76
2022/06/02 14:05:10;;;;;;;1.00;0.70;;;;;;;;;;4955981;29;20493;-76
2022/06/02 14:08:16;;;;;;;1.00;0.87;;;21.30;74.60;;;;;;4955798;29;20881;-76
2022/06/02 14:11:16;;;;;;;0.90;0.80;;;21.10;77.60;;;;;;4955925;29;20190;-77
2022/06/02 14:13:53;;;;;;;1.40;1.00;;;21.20;76.10;;;;;;4955749;29;20482;-76
2022/06/02 14:16:43;;;;;;;2.20;0.80;;;21.40;77.60;;;;;;4956012;29;20405;-76
2022/06/02 14:19:12;;;;;;;1.47;0.90;;;21.20;76.50;;;;;;4955563;29;20399;-76
2022/06/02 14:22:04;;;;;;;8.03;1.00;;;21.50;78.60;;;;;;4955618;29;20926;-76
2022/06/02 14:24:47;;;;;;;1.43;0.80;;;22.00;75.80;;;;;;4955788;29;20458;-77
2022/06/02 14:27:40;;;;;;;3.47;0.90;;;21.50;73.80;;;;;;4938342;29;20485;-76
2022/06/02 14:30:19;;;;;;;2.27;0.87;;;20.90;75.30;;;;;;4938323;29;20502;-76
2022/06/02 14:33:06;;;;;;;0.90;0.80;;;21.00;79.60;;;;;;4955478;29;20876;-80
2022/06/02 14:35:50;;;;;;;1.00;0.70;;;20.90;76.70;;;;;;4955550;29;20851;-76
2022/06/02 14:38:19;;;;;;;1.10;0.90;;;20.70;76.00;;;;;;4937506;29;20443;-76
2022/06/02 14:40:51;;;;;;;0.90;0.80;;;21.00;80.20;;;;;;4955337;29;20434;-76
2022/06/02 14:43:37;;;;;;;0.80;0.53;;;21.40;77.40;;;;;;4935075;29;20422;-76
2022/06/02 14:46:46;;;;;;;1.73;0.80;;;21.60;78.00;;;;;;4938130;29;20473;-76
2022/06/02 14:49:41;;;;;;;1.27;0.80;;;22.10;76.90;;;;;;4955002;29;20450;-78
2022/06/02 14:52:34;;;;;;;1.17;0.70;;;21.50;75.00;;;;;;4955053;29;20450;-76
2022/06/02 14:55:16;;;;;;;1.27;0.70;;;20.60;74.50;;;;;;4955220;29;20435;-78
2022/06/02 14:58:03;;;;;;;1.00;0.80;;;20.00;75.60;;;;;;4954817;29;20422;-76
2022/06/02 15:00:49;;;;;;;1.43;0.90;;;20.00;75.60;;;;;;4954887;29;20453;-78
2022/06/02 15:03:36;;;;;;;1.07;0.80;;;19.80;77.30;;;;;;4937684;29;20946;-76
2022/06/02 15:06:22;;;;;;;0.90;0.77;;;20.10;77.80;;;;;;4955035;29;20430;-76
2022/06/02 15:09:18;;;;;;;3.00;0.70;;;20.50;75.50;;;;;;4954586;29;20458;-76
2022/06/02 15:11:52;;;;;;;1.00;0.80;;;20.10;73.90;;;;;;4937462;29;20442;-76
2022/06/02 15:14:52;;;;;;;0.97;0.83;;;20.10;74.00;;;;;;4954889;29;20406;-77
2022/06/02 15:17:24;;;;;;;0.90;0.70;;;19.90;77.00;;;;;;4929905;29;20430;-77
2022/06/02 15:20:10;;;;;;;1.93;0.83;;;20.50;78.50;;;;;;4954255;28;20879;-76
2022/06/02 15:23:06;;;;;;;0.90;0.60;;;20.70;78.40;;;;;;4954613;29;20438;-77
2022/06/02 15:25:42;;;;;;;3.10;0.70;;;20.30;74.50;;;;;;4954707;29;20423;-76
2022/06/02 15:28:33;;;;;;;2.07;0.60;;;20.40;79.10;;;;;;4954234;29;20561;-74
2022/06/02 15:31:17;;;;;;;0.90;0.63;;;20.70;78.00;;;;;;4954527;29;20998;-75
2022/06/02 15:34:04;;;;;;;0.90;0.60;;;21.10;76.70;;;;;;4954459;29;20533;-75
2022/06/02 15:37:00;;;;;;;0.90;0.70;;;21.40;75.40;;;;;;4954412;29;20415;-75
2022/06/02 15:40:03;;;;;;;1.30;0.80;;;21.00;74.60;;;;;;4954214;29;20426;-77
2022/06/02 15:42:48;;;;;;;9.23;1.23;;;20.80;77.70;;;;;;4954281;29;20950;-76
2022/06/02 15:45:22;;;;;;;10.43;3.53;;;20.60;76.80;;;;;;4937093;29;20437;-76
2022/06/02 15:48:30;;;;;;;3.90;0.80;;;20.10;79.80;;;;;;4953802;29;20472;-76
2022/06/02 15:51:39;;;;;;;2.70;0.90;;;19.80;79.20;;;;;;4936930;29;20466;-79
2022/06/02 15:54:17;;;;;;;0.90;0.80;;;19.80;77.10;;;;;;4954074;29;20580;-76
2022/06/02 15:57:19;;;;;;;4.93;0.90;;;19.20;76.30;;;;;;4954057;29;20500;-77
2022/06/02 16:00:00;;;;;;;5.10;1.40;;;19.10;78.50;;;;;;4953817;29;20422;-76
2022/06/02 16:03:25;;;;;;;0.90;0.60;;;19.40;79.30;;;;;;4953896;29;20822;-75
2022/06/02 16:06:28;;;;;;;0.90;0.70;;;19.40;78.30;;;;;;4876184;29;20414;-75
2022/06/02 16:12:45;;;;;;;2.07;0.90;;;19.70;76.50;;;;;;4953975;29;21113;-76
2022/06/02 16:15:47;;;;;;;1.47;0.70;;;19.70;78.80;;;;;;4956464;29;20403;-77
2022/06/02 16:18:28;;;;;;;3.23;0.70;;;19.60;78.50;;;;;;4940066;29;20457;-77
2022/06/02 16:21:31;;;;;;;0.80;0.60;;;19.40;78.20;;;;;;4956707;28;21001;-78
2022/06/02 16:24:37;;;;;;;1.00;0.80;;;19.30;78.90;;;;;;4923459;29;20452;-78
2022/06/02 16:27:56;;;;;;;1.43;0.80;;;19.40;79.40;;;;;;4934050;29;21326;-77
2022/06/02 17:57:43;;;;;;;7.70;1.10;;;16.70;88.20;;;;;;5902694;23;20565;-77
2022/06/02 18:00:46;;;;;;;1.57;1.30;;;16.60;89.90;;;;;;4938596;29;20426;-78
2022/06/02 18:03:24;;;;;;;1.20;1.00;;;16.60;90.10;;;;;;4955791;29;20398;-79
2022/06/02 18:06:47;;;;;;;1.17;1.07;;;16.60;90.50;;;;;;4956056;29;20398;-78
2022/06/02 18:09:50;;;;;;;1.30;1.20;;;16.40;90.50;;;;;;4895757;29;20565;-78
2022/06/02 18:12:34;;;;;;;1.50;1.40;;;16.30;91.10;;;;;;4896924;29;20417;-79
2022/06/02 18:15:16;;;;;;;3.10;1.63;;;16.20;92.70;;;;;;4933633;29;20422;-80
2022/06/02 18:23:20;;;;;;;3.03;1.17;;;15.90;94.90;;;;;;5800723;23;20488;-80
2022/06/02 18:25:56;;;;;;;1.33;1.23;;;15.70;94.70;;;;;;4978352;28;20438;-81
2022/06/02 18:28:59;;;;;;;1.13;1.03;;;15.60;94.40;;;;;;4976097;28;20456;-78
2022/06/02 18:31:53;;;;;;;1.47;1.37;;;15.50;93.70;;;;;;4955401;29;20414;-81
2022/06/02 18:34:32;;;;;;;1.60;1.50;;;15.30;94.50;;;;;;4955505;29;20391;-78
2022/06/02 18:37:28;;;;;;;1.53;1.43;;;15.10;93.60;;;;;;4938021;29;20411;-78
2022/06/02 18:40:16;;;;;;;3.30;2.83;;;14.90;95.90;;;;;;4955314;29;20407;-78
2022/06/02 18:43:22;;;;;;;1.60;1.20;;;14.70;96.30;;;;;;4954973;29;20808;-80
2022/06/02 18:46:07;;;;;;;2.70;1.50;;;14.50;96.30;;;;;;4955072;29;20410;-79
2022/06/02 18:49:07;;;;;;;1.60;1.50;;;14.30;96.30;;;;;;4968413;28;20457;-78
2022/06/02 18:52:12;;;;;;;1.40;1.30;;;14.10;96.30;;;;;;4976122;28;20460;-78
2022/06/02 18:55:04;;;;;;;1.97;1.77;;;13.70;96.30;;;;;;4993025;28;20476;-78
2022/06/02 18:58:01;;;;;;;1.60;1.50;;;13.20;96.30;;;;;;4973883;28;20429;-78
2022/06/02 19:00:59;;;;;;;1.60;1.50;;;12.80;96.30;;;;;;4957045;28;20505;-78
2022/06/02 19:04:07;;;;;;;2.00;1.53;;;12.50;96.30;;;;;;4956831;28;20509;-78
2022/06/02 19:13:46;;;;;;;1.53;1.43;;;12.10;96.30;;;;;;4955041;29;20443;-78
2022/06/02 19:16:40;;;;;;;2.73;1.43;;;11.80;96.30;;;;;;4937320;29;20478;-79
2022/06/02 19:19:33;;;;;;;1.60;1.50;;;11.80;96.30;;;;;;4936837;29;20529;-77
2022/06/02 19:22:25;;;;;;;1.73;1.63;;;11.70;96.30;;;;;;4961848;28;20958;-78
2022/06/02 19:25:08;;;;;;;1.50;1.30;;;11.60;96.30;;;;;;4966959;28;20969;-80
2022/06/02 19:28:18;;;;;;;1.70;1.60;;;11.50;96.30;;;;;;4958808;28;20465;-80
2022/06/02 19:31:02;;;;;;;6.33;1.80;;;11.30;96.30;;;;;;4897443;29;20503;-79
2022/06/02 19:33:33;;;;;;;1.70;1.60;;;11.20;96.30;;;;;;4974585;28;20414;-79
2022/06/02 19:35:58;;;;;;;2.90;1.80;;;11.10;96.30;;;;;;4960276;28;20441;-80
2022/06/02 19:38:37;;;;;;;2.90;2.60;;;11.00;96.30;;;;;;4974721;28;20981;-79
2022/06/02 19:41:18;;;;;;;2.90;2.13;;;10.90;96.30;;;;;;4973910;28;20179;-79
2022/06/02 19:44:06;;;;;;;2.33;2.13;;;10.80;96.30;;;;;;4956409;28;20480;-78
2022/06/02 19:46:52;;;;;;;2.30;2.20;;;10.70;96.30;;;;;;4937378;29;20414;-78
2022/06/02 19:49:46;;;;;;;2.33;2.13;;;10.60;96.30;;;;;;4952773;29;20472;-79
2022/06/02 19:52:24;;;;;;;2.43;2.23;;;10.50;96.30;;;;;;4954584;29;20435;-79
2022/06/02 19:55:03;;;;;;;2.63;2.30;;;10.40;96.30;;;;;;4953315;29;20425;-78
2022/06/02 19:57:48;;;;;;;2.40;2.13;;;10.40;96.30;;;;;;4954012;29;22197;-77
2022/06/02 20:00:25;;;;;;;2.57;2.37;;;10.40;96.30;;;;;;4973642;28;20420;-78
2022/06/02 20:03:07;;;;;;;2.53;2.33;;;10.20;96.30;;;;;;4992443;28;20412;-79
2022/06/02 20:05:40;;;;;;;3.00;2.50;;;10.20;96.30;;;;;;4974040;28;20416;-78
2022/06/02 20:08:12;;;;;;;3.73;2.50;;;10.20;96.30;;;;;;4992465;28;21042;-78
2022/06/02 20:10:51;;;;;;;3.23;2.27;;;10.10;96.30;;;;;;4975186;28;20413;-79
2022/06/02 20:13:19;;;;;;;2.23;2.03;;;10.10;96.30;;;;;;4992797;28;20826;-79
2022/06/02 20:15:53;;;;;;;2.67;2.47;;;10.00;96.30;;;;;;4959012;28;20468;-79
2022/06/02 20:18:25;;;;;;;2.70;2.50;;;10.00;96.30;;;;;;4954303;28;20437;-78
2022/06/02 20:21:21;;;;;;;2.57;2.37;;;9.90;96.30;;;;;;4971875;28;20406;-78
2022/06/02 20:23:55;;;;;;;6.23;2.53;;;9.90;96.30;;;;;;4972604;28;20433;-78
2022/06/02 20:26:37;;;;;;;2.90;2.70;;;9.80;96.30;;;;;;4954799;28;20544;-77
2022/06/02 20:29:14;;;;;;;2.53;2.33;;;9.80;96.30;;;;;;4955450;28;20607;-77
2022/06/02 20:32:11;;;;;;;2.20;2.10;;;9.80;96.30;;;;;;4955646;28;20420;-77
2022/06/02 20:35:07;;;;;;;2.10;2.00;;;9.70;96.30;;;;;;4972912;28;20398;-77
2022/06/02 20:38:11;;;;;;;4.47;2.40;;;9.60;96.30;;;;;;4971547;28;20434;-76